sensor_id;sensor_type;location;lat;lon;timestamp;temperature;humidity
63371;DHT22;49504;48.336;14.472;2022-08-30T00:01:55;27.60;52.70
63371;DHT22;49504;48.336;14.472;2022-08-30T00:06:56;27.60;52.70
63371;DHT22;49504;48.336;14.472;2022-08-30T00:11:59;27.60;52.70
63371;DHT22;49504;48.336;14.472;2022-08-30T00:17:00;27.60;53.40
63371;DHT22;49504;48.336;14.472;2022-08-30T00:22:01;27.60;52.70
63371;DHT22;49504;48.336;14.472;2022-08-30T00:27:03;27.60;52.60
63371;DHT22;49504;48.336;14.472;2022-08-30T00:32:04;27.60;52.60
63371;DHT22;49504;48.336;14.472;2022-08-30T00:37:05;27.60;52.70
63371;DHT22;49504;48.336;14.472;2022-08-30T00:45:31;27.50;52.10
63371;DHT22;49504;48.336;14.472;2022-08-30T00:59:17;27.50;52.10
63371;DHT22;49504;48.336;14.472;2022-08-30T01:08:48;27.50;52.10
63371;DHT22;49504;48.336;14.472;2022-08-30T01:14:27;27.50;52.10
63371;DHT22;49504;48.336;14.472;2022-08-30T01:19:34;27.50;52.70
63371;DHT22;49504;48.336;14.472;2022-08-30T01:24:38;27.50;52.70
63371;DHT22;49504;48.336;14.472;2022-08-30T01:29:40;27.50;52.60
63371;DHT22;49504;48.336;14.472;2022-08-30T01:43:45;27.50;52.10
63371;DHT22;49504;48.336;14.472;2022-08-30T01:52:06;27.50;52.10
63371;DHT22;49504;48.336;14.472;2022-08-30T01:57:09;27.50;52.60
63371;DHT22;49504;48.336;14.472;2022-08-30T02:02:11;27.50;52.60
63371;DHT22;49504;48.336;14.472;2022-08-30T02:07:14;27.50;52.60
63371;DHT22;49504;48.336;14.472;2022-08-30T02:12:15;27.50;52.50
63371;DHT22;49504;48.336;14.472;2022-08-30T02:17:16;27.50;52.50
63371;DHT22;49504;48.336;14.472;2022-08-30T02:22:19;27.50;52.50
63371;DHT22;49504;48.336;14.472;2022-08-30T02:27:20;27.50;52.40
63371;DHT22;49504;48.336;14.472;2022-08-30T02:34:04;27.50;52.00
63371;DHT22;49504;48.336;14.472;2022-08-30T02:41:53;27.50;52.00
63371;DHT22;49504;48.336;14.472;2022-08-30T02:46:54;27.50;52.30
63371;DHT22;49504;48.336;14.472;2022-08-30T02:53:17;27.50;52.00
63371;DHT22;49504;48.336;14.472;2022-08-30T03:00:35;27.50;52.00
63371;DHT22;49504;48.336;14.472;2022-08-30T03:05:37;27.50;52.40
63371;DHT22;49504;48.336;14.472;2022-08-30T03:13:17;27.50;52.00
63371;DHT22;49504;48.336;14.472;2022-08-30T03:18:20;27.50;52.40
63371;DHT22;49504;48.336;14.472;2022-08-30T03:23:22;27.50;52.40
63371;DHT22;49504;48.336;14.472;2022-08-30T03:32:17;27.50;52.00
63371;DHT22;49504;48.336;14.472;2022-08-30T03:37:18;27.40;52.20
63371;DHT22;49504;48.336;14.472;2022-08-30T03:45:33;27.40;51.80
63371;DHT22;49504;48.336;14.472;2022-08-30T03:50:34;27.50;52.30
63371;DHT22;49504;48.336;14.472;2022-08-30T03:55:37;27.50;52.40
63371;DHT22;49504;48.336;14.472;2022-08-30T04:03:57;27.40;51.80
63371;DHT22;49504;48.336;14.472;2022-08-30T04:10:51;27.40;51.70
63371;DHT22;49504;48.336;14.472;2022-08-30T04:15:53;27.50;52.10
63371;DHT22;49504;48.336;14.472;2022-08-30T04:20:54;27.50;51.90
63371;DHT22;49504;48.336;14.472;2022-08-30T04:25:57;27.40;51.70
63371;DHT22;49504;48.336;14.472;2022-08-30T04:30:58;27.40;51.50
63371;DHT22;49504;48.336;14.472;2022-08-30T04:36:01;27.50;52.00
63371;DHT22;49504;48.336;14.472;2022-08-30T04:41:10;27.50;51.80
63371;DHT22;49504;48.336;14.472;2022-08-30T04:46:13;27.50;51.70
63371;DHT22;49504;48.336;14.472;2022-08-30T04:51:15;27.50;51.60
63371;DHT22;49504;48.336;14.472;2022-08-30T04:56:20;27.50;51.70
63371;DHT22;49504;48.336;14.472;2022-08-30T05:02:39;27.40;51.20
63371;DHT22;49504;48.336;14.472;2022-08-30T05:07:40;27.50;51.80
63371;DHT22;49504;48.336;14.472;2022-08-30T05:12:41;27.50;51.80
63371;DHT22;49504;48.336;14.472;2022-08-30T05:17:44;27.50;52.00
63371;DHT22;49504;48.336;14.472;2022-08-30T05:22:45;27.50;52.00
63371;DHT22;49504;48.336;14.472;2022-08-30T05:27:46;27.50;51.90
63371;DHT22;49504;48.336;14.472;2022-08-30T05:32:49;27.50;51.90
63371;DHT22;49504;48.336;14.472;2022-08-30T05:37:51;27.50;51.90
63371;DHT22;49504;48.336;14.472;2022-08-30T05:42:52;27.50;52.00
63371;DHT22;49504;48.336;14.472;2022-08-30T05:47:55;27.50;51.40
63371;DHT22;49504;48.336;14.472;2022-08-30T05:54:13;27.40;51.10
63371;DHT22;49504;48.336;14.472;2022-08-30T05:59:16;27.50;51.70
63371;DHT22;49504;48.336;14.472;2022-08-30T06:04:17;27.50;51.50
63371;DHT22;49504;48.336;14.472;2022-08-30T06:09:19;27.40;51.60
63371;DHT22;49504;48.336;14.472;2022-08-30T06:14:21;27.40;51.60
63371;DHT22;49504;48.336;14.472;2022-08-30T06:20:45;27.40;51.20
63371;DHT22;49504;48.336;14.472;2022-08-30T06:25:46;27.40;51.60
63371;DHT22;49504;48.336;14.472;2022-08-30T06:35:36;27.40;50.90
63371;DHT22;49504;48.336;14.472;2022-08-30T06:58:21;27.40;50.50
63371;DHT22;49504;48.336;14.472;2022-08-30T07:03:22;27.30;50.80
63371;DHT22;49504;48.336;14.472;2022-08-30T07:08:24;27.40;50.50
63371;DHT22;49504;48.336;14.472;2022-08-30T07:15:43;27.30;50.10
63371;DHT22;49504;48.336;14.472;2022-08-30T07:22:52;27.30;49.90
63371;DHT22;49504;48.336;14.472;2022-08-30T07:27:53;27.40;49.90
63371;DHT22;49504;48.336;14.472;2022-08-30T07:35:01;27.30;49.60
63371;DHT22;49504;48.336;14.472;2022-08-30T07:40:03;27.40;50.00
63371;DHT22;49504;48.336;14.472;2022-08-30T07:45:05;27.40;49.60
63371;DHT22;49504;48.336;14.472;2022-08-30T07:50:08;27.40;49.40
63371;DHT22;49504;48.336;14.472;2022-08-30T07:55:09;27.40;49.50
63371;DHT22;49504;48.336;14.472;2022-08-30T08:07:30;27.40;49.50
63371;DHT22;49504;48.336;14.472;2022-08-30T08:12:31;27.40;49.90
63371;DHT22;49504;48.336;14.472;2022-08-30T08:17:34;27.40;50.20
63371;DHT22;49504;48.336;14.472;2022-08-30T08:22:37;27.40;49.90
63371;DHT22;49504;48.336;14.472;2022-08-30T08:27:38;27.40;50.50
63371;DHT22;49504;48.336;14.472;2022-08-30T08:32:40;27.40;50.00
63371;DHT22;49504;48.336;14.472;2022-08-30T08:37:42;27.40;49.90
63371;DHT22;49504;48.336;14.472;2022-08-30T08:42:55;27.30;49.80
63371;DHT22;49504;48.336;14.472;2022-08-30T08:48:03;27.40;50.00
63371;DHT22;49504;48.336;14.472;2022-08-30T08:53:13;27.40;50.20
63371;DHT22;49504;48.336;14.472;2022-08-30T08:58:31;27.40;50.40
63371;DHT22;49504;48.336;14.472;2022-08-30T09:03:38;27.40;50.40
63371;DHT22;49504;48.336;14.472;2022-08-30T09:08:41;27.40;50.60
63371;DHT22;49504;48.336;14.472;2022-08-30T09:13:42;27.40;51.30
63371;DHT22;49504;48.336;14.472;2022-08-30T09:18:45;27.40;51.50
63371;DHT22;49504;48.336;14.472;2022-08-30T09:23:50;27.40;51.20
63371;DHT22;49504;48.336;14.472;2022-08-30T09:28:55;27.40;51.80
63371;DHT22;49504;48.336;14.472;2022-08-30T09:34:00;27.40;51.80
63371;DHT22;49504;48.336;14.472;2022-08-30T09:39:05;27.40;52.60
63371;DHT22;49504;48.336;14.472;2022-08-30T09:44:10;27.40;51.50
63371;DHT22;49504;48.336;14.472;2022-08-30T09:49:28;27.40;51.30
63371;DHT22;49504;48.336;14.472;2022-08-30T09:54:38;27.40;51.20
63371;DHT22;49504;48.336;14.472;2022-08-30T09:59:47;27.40;51.80
63371;DHT22;49504;48.336;14.472;2022-08-30T10:04:58;27.50;52.40
63371;DHT22;49504;48.336;14.472;2022-08-30T10:10:10;27.50;53.30
63371;DHT22;49504;48.336;14.472;2022-08-30T10:15:19;27.50;53.90
63371;DHT22;49504;48.336;14.472;2022-08-30T10:20:28;27.60;54.00
63371;DHT22;49504;48.336;14.472;2022-08-30T10:25:37;27.60;53.80
63371;DHT22;49504;48.336;14.472;2022-08-30T10:30:44;27.60;54.60
63371;DHT22;49504;48.336;14.472;2022-08-30T10:35:49;27.60;53.90
63371;DHT22;49504;48.336;14.472;2022-08-30T10:41:00;27.60;54.80
63371;DHT22;49504;48.336;14.472;2022-08-30T10:46:08;27.60;54.60
63371;DHT22;49504;48.336;14.472;2022-08-30T10:51:24;27.60;54.50
63371;DHT22;49504;48.336;14.472;2022-08-30T10:56:29;27.60;54.40
63371;DHT22;49504;48.336;14.472;2022-08-30T11:01:40;27.60;53.90
63371;DHT22;49504;48.336;14.472;2022-08-30T11:06:57;27.60;54.00
63371;DHT22;49504;48.336;14.472;2022-08-30T11:12:24;27.60;54.00
63371;DHT22;49504;48.336;14.472;2022-08-30T11:17:38;27.60;53.70
63371;DHT22;49504;48.336;14.472;2022-08-30T11:23:12;27.60;53.80
63371;DHT22;49504;48.336;14.472;2022-08-30T11:34:04;27.60;53.50
63371;DHT22;49504;48.336;14.472;2022-08-30T11:39:07;27.60;53.90
63371;DHT22;49504;48.336;14.472;2022-08-30T11:44:35;27.70;54.10
63371;DHT22;49504;48.336;14.472;2022-08-30T11:49:56;27.60;53.70
63371;DHT22;49504;48.336;14.472;2022-08-30T11:55:26;27.60;53.80
63371;DHT22;49504;48.336;14.472;2022-08-30T12:00:39;27.70;53.80
63371;DHT22;49504;48.336;14.472;2022-08-30T12:05:56;27.60;53.80
63371;DHT22;49504;48.336;14.472;2022-08-30T12:10:59;27.70;53.70
63371;DHT22;49504;48.336;14.472;2022-08-30T12:16:04;27.60;53.60
63371;DHT22;49504;48.336;14.472;2022-08-30T12:26:33;27.60;53.60
63371;DHT22;49504;48.336;14.472;2022-08-30T12:31:41;27.70;53.70
63371;DHT22;49504;48.336;14.472;2022-08-30T12:36:51;27.70;53.50
63371;DHT22;49504;48.336;14.472;2022-08-30T12:42:11;27.60;53.20
63371;DHT22;49504;48.336;14.472;2022-08-30T12:47:20;27.60;53.40
63371;DHT22;49504;48.336;14.472;2022-08-30T12:52:28;27.70;53.40
63371;DHT22;49504;48.336;14.472;2022-08-30T12:57:36;27.70;52.70
63371;DHT22;49504;48.336;14.472;2022-08-30T13:02:45;27.60;52.60
63371;DHT22;49504;48.336;14.472;2022-08-30T13:07:47;27.60;52.50
63371;DHT22;49504;48.336;14.472;2022-08-30T13:12:59;27.60;53.10
63371;DHT22;49504;48.336;14.472;2022-08-30T13:18:17;27.60;52.90
63371;DHT22;49504;48.336;14.472;2022-08-30T13:23:22;27.60;53.00
63371;DHT22;49504;48.336;14.472;2022-08-30T13:28:23;27.70;53.40
63371;DHT22;49504;48.336;14.472;2022-08-30T13:33:26;27.60;53.40
63371;DHT22;49504;48.336;14.472;2022-08-30T13:38:27;27.70;53.90
63371;DHT22;49504;48.336;14.472;2022-08-30T13:43:29;27.70;53.90
63371;DHT22;49504;48.336;14.472;2022-08-30T13:48:31;27.70;54.90
63371;DHT22;49504;48.336;14.472;2022-08-30T13:53:33;27.70;54.70
63371;DHT22;49504;48.336;14.472;2022-08-30T13:58:34;27.70;54.30
63371;DHT22;49504;48.336;14.472;2022-08-30T14:03:36;27.70;54.30
63371;DHT22;49504;48.336;14.472;2022-08-30T14:08:37;27.70;53.30
63371;DHT22;49504;48.336;14.472;2022-08-30T14:13:39;27.70;53.90
63371;DHT22;49504;48.336;14.472;2022-08-30T14:18:42;27.70;53.80
63371;DHT22;49504;48.336;14.472;2022-08-30T14:28:29;27.70;53.00
63371;DHT22;49504;48.336;14.472;2022-08-30T14:33:30;27.70;53.50
63371;DHT22;49504;48.336;14.472;2022-08-30T14:38:31;27.70;53.50
63371;DHT22;49504;48.336;14.472;2022-08-30T14:43:33;27.70;53.50
63371;DHT22;49504;48.336;14.472;2022-08-30T14:48:35;27.70;53.50
63371;DHT22;49504;48.336;14.472;2022-08-30T14:54:01;27.70;52.70
63371;DHT22;49504;48.336;14.472;2022-08-30T14:59:02;27.70;53.30
63371;DHT22;49504;48.336;14.472;2022-08-30T15:05:25;27.70;52.70
63371;DHT22;49504;48.336;14.472;2022-08-30T15:10:26;27.70;52.90
63371;DHT22;49504;48.336;14.472;2022-08-30T15:15:27;27.70;52.70
63371;DHT22;49504;48.336;14.472;2022-08-30T15:20:30;27.70;52.80
63371;DHT22;49504;48.336;14.472;2022-08-30T15:31:53;27.70;52.40
63371;DHT22;49504;48.336;14.472;2022-08-30T15:41:12;27.70;52.50
63371;DHT22;49504;48.336;14.472;2022-08-30T15:46:19;27.70;53.00
63371;DHT22;49504;48.336;14.472;2022-08-30T15:51:22;27.70;52.80
63371;DHT22;49504;48.336;14.472;2022-08-30T15:56:26;27.70;52.60
63371;DHT22;49504;48.336;14.472;2022-08-30T16:01:27;27.70;52.40
63371;DHT22;49504;48.336;14.472;2022-08-30T16:06:31;27.70;52.40
63371;DHT22;49504;48.336;14.472;2022-08-30T16:11:35;27.70;52.80
63371;DHT22;49504;48.336;14.472;2022-08-30T16:16:36;27.70;52.20
63371;DHT22;49504;48.336;14.472;2022-08-30T16:21:38;27.70;52.00
63371;DHT22;49504;48.336;14.472;2022-08-30T16:26:42;27.70;52.10
63371;DHT22;49504;48.336;14.472;2022-08-30T16:34:06;27.70;51.70
63371;DHT22;49504;48.336;14.472;2022-08-30T16:39:09;27.70;52.10
63371;DHT22;49504;48.336;14.472;2022-08-30T16:44:12;27.70;52.20
63371;DHT22;49504;48.336;14.472;2022-08-30T16:56:10;27.70;51.80
63371;DHT22;49504;48.336;14.472;2022-08-30T17:01:13;27.80;52.40
63371;DHT22;49504;48.336;14.472;2022-08-30T17:06:15;27.70;52.40
63371;DHT22;49504;48.336;14.472;2022-08-30T17:11:18;27.80;52.40
63371;DHT22;49504;48.336;14.472;2022-08-30T17:16:19;27.70;52.40
63371;DHT22;49504;48.336;14.472;2022-08-30T17:21:21;27.80;52.50
63371;DHT22;49504;48.336;14.472;2022-08-30T17:26:23;27.70;52.40
63371;DHT22;49504;48.336;14.472;2022-08-30T17:31:24;27.80;52.50
63371;DHT22;49504;48.336;14.472;2022-08-30T17:36:25;27.80;52.60
63371;DHT22;49504;48.336;14.472;2022-08-30T17:41:28;27.80;52.50
63371;DHT22;49504;48.336;14.472;2022-08-30T17:46:29;27.80;52.60
63371;DHT22;49504;48.336;14.472;2022-08-30T17:51:30;27.80;52.70
63371;DHT22;49504;48.336;14.472;2022-08-30T17:56:33;27.80;52.70
63371;DHT22;49504;48.336;14.472;2022-08-30T18:01:35;27.80;52.70
63371;DHT22;49504;48.336;14.472;2022-08-30T18:06:36;27.80;53.40
63371;DHT22;49504;48.336;14.472;2022-08-30T18:11:39;27.80;52.70
63371;DHT22;49504;48.336;14.472;2022-08-30T18:16:40;27.80;52.70
63371;DHT22;49504;48.336;14.472;2022-08-30T18:21:41;27.80;52.80
63371;DHT22;49504;48.336;14.472;2022-08-30T18:26:44;27.90;52.90
63371;DHT22;49504;48.336;14.472;2022-08-30T18:31:45;27.90;52.90
63371;DHT22;49504;48.336;14.472;2022-08-30T18:36:46;27.90;52.90
63371;DHT22;49504;48.336;14.472;2022-08-30T18:41:49;27.90;52.80
63371;DHT22;49504;48.336;14.472;2022-08-30T18:46:50;27.90;52.90
63371;DHT22;49504;48.336;14.472;2022-08-30T18:51:51;27.90;53.00
63371;DHT22;49504;48.336;14.472;2022-08-30T18:56:54;27.90;53.00
63371;DHT22;49504;48.336;14.472;2022-08-30T19:01:57;27.90;53.00
63371;DHT22;49504;48.336;14.472;2022-08-30T19:06:59;27.90;53.00
63371;DHT22;49504;48.336;14.472;2022-08-30T19:12:04;27.90;53.10
63371;DHT22;49504;48.336;14.472;2022-08-30T19:17:07;27.90;53.10
63371;DHT22;49504;48.336;14.472;2022-08-30T19:22:09;27.90;53.10
63371;DHT22;49504;48.336;14.472;2022-08-30T19:27:13;27.90;53.20
63371;DHT22;49504;48.336;14.472;2022-08-30T19:32:15;27.90;53.10
63371;DHT22;49504;48.336;14.472;2022-08-30T19:39:38;27.80;52.40
63371;DHT22;49504;48.336;14.472;2022-08-30T19:44:40;27.90;53.00
63371;DHT22;49504;48.336;14.472;2022-08-30T19:49:42;27.90;53.00
63371;DHT22;49504;48.336;14.472;2022-08-30T19:54:45;27.90;53.10
63371;DHT22;49504;48.336;14.472;2022-08-30T20:01:32;27.90;52.60
63371;DHT22;49504;48.336;14.472;2022-08-30T20:06:33;27.80;52.70
63371;DHT22;49504;48.336;14.472;2022-08-30T20:11:35;27.90;52.70
63371;DHT22;49504;48.336;14.472;2022-08-30T20:20:18;27.90;52.10
63371;DHT22;49504;48.336;14.472;2022-08-30T20:25:20;27.90;52.30
63371;DHT22;49504;48.336;14.472;2022-08-30T20:36:54;27.80;51.30
63371;DHT22;49504;48.336;14.472;2022-08-30T20:41:56;27.80;51.50
63371;DHT22;49504;48.336;14.472;2022-08-30T20:52:22;27.70;51.30
63371;DHT22;49504;48.336;14.472;2022-08-30T20:57:23;27.80;51.70
63371;DHT22;49504;48.336;14.472;2022-08-30T21:02:24;27.80;51.40
63371;DHT22;49504;48.336;14.472;2022-08-30T21:07:26;27.80;51.00
63371;DHT22;49504;48.336;14.472;2022-08-30T21:12:27;27.80;50.80
63371;DHT22;49504;48.336;14.472;2022-08-30T21:17:28;27.70;50.10
63371;DHT22;49504;48.336;14.472;2022-08-30T21:22:30;27.70;49.40
63371;DHT22;49504;48.336;14.472;2022-08-30T21:27:31;27.70;49.20
63371;DHT22;49504;48.336;14.472;2022-08-30T21:38:35;27.70;49.30
63371;DHT22;49504;48.336;14.472;2022-08-30T21:43:36;27.70;48.60
63371;DHT22;49504;48.336;14.472;2022-08-30T21:48:37;27.70;48.30
63371;DHT22;49504;48.336;14.472;2022-08-30T21:53:39;27.60;48.00
63371;DHT22;49504;48.336;14.472;2022-08-30T21:58:40;27.60;47.80
63371;DHT22;49504;48.336;14.472;2022-08-30T22:03:42;27.60;47.60
63371;DHT22;49504;48.336;14.472;2022-08-30T22:08:48;27.60;47.40
63371;DHT22;49504;48.336;14.472;2022-08-30T22:16:58;27.60;47.40
63371;DHT22;49504;48.336;14.472;2022-08-30T22:21:59;27.60;47.00
63371;DHT22;49504;48.336;14.472;2022-08-30T22:30:00;27.50;47.30
63371;DHT22;49504;48.336;14.472;2022-08-30T22:35:01;27.60;47.00
63371;DHT22;49504;48.336;14.472;2022-08-30T22:43:44;27.50;47.10
63371;DHT22;49504;48.336;14.472;2022-08-30T22:48:46;27.50;46.80
63371;DHT22;49504;48.336;14.472;2022-08-30T22:53:48;27.50;46.80
63371;DHT22;49504;48.336;14.472;2022-08-30T22:58:51;27.50;46.60
63371;DHT22;49504;48.336;14.472;2022-08-30T23:03:54;27.50;46.60
63371;DHT22;49504;48.336;14.472;2022-08-30T23:08:56;27.50;46.40
63371;DHT22;49504;48.336;14.472;2022-08-30T23:13:58;27.50;46.20
63371;DHT22;49504;48.336;14.472;2022-08-30T23:20:52;27.50;46.30
63371;DHT22;49504;48.336;14.472;2022-08-30T23:30:25;27.40;45.90
63371;DHT22;49504;48.336;14.472;2022-08-30T23:35:26;27.50;46.30
63371;DHT22;49504;48.336;14.472;2022-08-30T23:40:27;27.50;45.40
63371;DHT22;49504;48.336;14.472;2022-08-30T23:49:09;27.40;45.60
63371;DHT22;49504;48.336;14.472;2022-08-30T23:55:25;27.40;45.40
